»·PEaware :: DAL2020 KSFO-KLAX

DAL2020 :: KSFO-KLAX

FLIGHT INFORMATION

Flight Status: Arrived
Operator:
Delta Air Lines
More flights by this operator :: More flights under this callsign
Pilot: Kevin M. (7)
Aircraft: BOEING 737-800
(B738)
More flights by this aircraft type
Origin: KSFO San Francisco Intl
United States
Destination: KLAX Los Angeles Intl
United States
More flights between these airports :: More routes between these airports
Route: +SSTIK4 EBAYE BURGL IRNMN2
File this flight plan on PilotEdge
Remarks: Where are the after burners on this thing
Altitude:
(Current/Filed)
35,000ft
Speed:
(Current/Filed)
468kts
Departed: 12-Nov-19 09:11 AM
Arrived: 12-Nov-19 10:06 AM
Distance/Time
Traveled:
293nm/0:55
Distance/Time
To Go:
Arrived

Flight Plot

Page will automatically refresh every two minutes.

Flight plan parsing failed; only flown route is shown


Map Options




Map Legend


Flown Route
Filed Route
Departure Airport
Arrival Airport
Navaid (VOR, NDB)
Fix

Horizontal Profiles

Position Reports

Time Latitude Longitude Heading Altitude Ground
Speed
12-Nov-19 08:49 37.616548 -122.381282 9 33ft 0kts
12-Nov-19 08:50 37.616548 -122.381282 9 33ft 0kts
12-Nov-19 08:51 37.616548 -122.381282 9 33ft 0kts
12-Nov-19 08:52 37.616548 -122.381282 9 33ft 0kts
12-Nov-19 08:53 37.616548 -122.381282 9 33ft 0kts
12-Nov-19 08:54 37.616548 -122.381282 9 33ft 0kts
12-Nov-19 08:55 37.616548 -122.381282 9 33ft 0kts
12-Nov-19 08:56 37.616548 -122.381282 9 33ft 0kts
12-Nov-19 08:57 37.616548 -122.381282 9 33ft 0kts
12-Nov-19 08:58 37.616548 -122.381282 9 33ft 0kts
12-Nov-19 08:59 37.616548 -122.381282 9 33ft 0kts
12-Nov-19 09:00 37.616331 -122.381329 9 33ft 2kts
12-Nov-19 09:01 37.616232 -122.381350 10 33ft 2kts
12-Nov-19 09:02 37.616198 -122.381357 9 33ft 1kts
12-Nov-19 09:03 37.616177 -122.381360 9 33ft 1kts
12-Nov-19 09:04 37.616134 -122.381640 119 33ft 0kts
12-Nov-19 09:05 37.616134 -122.381640 119 33ft 0kts
12-Nov-19 09:06 37.615920 -122.381126 118 33ft 0kts
12-Nov-19 09:07 37.615609 -122.380598 156 33ft 10kts
12-Nov-19 09:08 37.612323 -122.382467 206 34ft 28kts
12-Nov-19 09:09 37.609031 -122.382558 107 32ft 10kts
12-Nov-19 09:10 37.627762 -122.369847 27 350ft 177kts
12-Nov-19 09:11 37.677632 -122.360219 351 3135ft 210kts
12-Nov-19 09:12 37.704229 -122.424539 240 5468ft 269kts
12-Nov-19 09:13 37.633593 -122.452062 186 8614ft 286kts
12-Nov-19 09:14 37.551235 -122.462078 179 10792ft 329kts
12-Nov-19 09:15 37.455502 -122.421284 144 11799ft 400kts
12-Nov-19 09:16 37.375794 -122.319422 133 14092ft 420kts
12-Nov-19 09:17 37.294291 -122.208829 133 16505ft 437kts
12-Nov-19 09:18 37.209761 -122.094558 133 18727ft 455kts
12-Nov-19 09:19 37.122075 -121.976443 133 20821ft 471kts
12-Nov-19 09:20 37.031268 -121.854583 132 22775ft 486kts
12-Nov-19 09:21 36.937784 -121.729607 132 24614ft 499kts
12-Nov-19 09:22 36.841229 -121.601035 132 26242ft 514kts
12-Nov-19 09:23 36.742359 -121.469913 132 28145ft 520kts
12-Nov-19 09:24 36.643418 -121.339233 133 30195ft 519kts
12-Nov-19 09:25 36.544411 -121.208923 133 32106ft 518kts
12-Nov-19 09:26 36.445725 -121.079614 133 33853ft 516kts
12-Nov-19 09:27 36.351007 -120.946189 129 35173ft 514kts
12-Nov-19 09:28 36.258549 -120.813528 129 35186ft 510kts
12-Nov-19 09:29 36.165556 -120.680662 130 35187ft 510kts
12-Nov-19 09:30 36.072558 -120.548318 129 35188ft 510kts
12-Nov-19 09:31 35.979219 -120.416015 129 35186ft 510kts
12-Nov-19 09:32 35.885691 -120.286222 136 35179ft 510kts
12-Nov-19 09:33 35.770331 -120.185979 149 35177ft 510kts
12-Nov-19 09:34 35.649190 -120.095050 149 35181ft 510kts
12-Nov-19 09:35 35.528464 -120.003975 149 35182ft 510kts
12-Nov-19 09:36 35.406995 -119.912653 149 35177ft 510kts
12-Nov-19 09:37 35.287615 -119.822522 145 35166ft 487kts
12-Nov-19 09:38 35.179849 -119.722319 142 35168ft 488kts
12-Nov-19 09:39 35.071900 -119.621666 142 35184ft 488kts
12-Nov-19 09:40 34.964167 -119.521543 142 35222ft 487kts
12-Nov-19 09:41 34.873498 -119.438339 137 26548ft 375kts
12-Nov-19 09:42 34.785922 -119.373748 165 22742ft 456kts
12-Nov-19 09:43 34.690680 -119.313805 82 19316ft 431kts
12-Nov-19 09:44 34.655245 -119.202700 144 22654ft 483kts
12-Nov-19 09:45 34.533145 -119.137295 146 22922ft 457kts
12-Nov-19 09:46 34.438075 -119.055662 141 21088ft 388kts
12-Nov-19 09:47 34.352993 -118.981946 142 17928ft 366kts
12-Nov-19 09:48 34.273229 -118.910013 141 15302ft 350kts
12-Nov-19 09:49 34.198888 -118.841947 141 13148ft 308kts
12-Nov-19 09:50 34.134511 -118.777879 136 10939ft 294kts
12-Nov-19 09:51 34.074826 -118.712738 136 9489ft 281kts
12-Nov-19 09:52 34.029785 -118.641519 106 8281ft 267kts
12-Nov-19 09:53 34.019655 -118.558542 95 7728ft 234kts
12-Nov-19 09:54 34.012441 -118.481460 95 6733ft 229kts
12-Nov-19 09:55 34.018827 -118.406302 77 6234ft 227kts
12-Nov-19 09:56 34.030014 -118.332363 82 6234ft 228kts
12-Nov-19 09:57 34.037423 -118.256706 83 6207ft 230kts
12-Nov-19 09:58 34.044617 -118.179167 83 5008ft 235kts
12-Nov-19 09:59 34.036505 -118.106618 153 3878ft 232kts
12-Nov-19 10:00 33.981440 -118.117165 249 3285ft 227kts
12-Nov-19 10:01 33.973470 -118.192210 263 2496ft 218kts
12-Nov-19 10:02 33.966288 -118.264031 263 2397ft 212kts
12-Nov-19 10:03 33.959803 -118.327484 263 1370ft 168kts
12-Nov-19 10:04 33.954608 -118.378031 263 554ft 147kts
12-Nov-19 10:05 33.950500 -118.417029 253 124ft 14kts
12-Nov-19 10:06 33.948071 -118.414312 108 123ft 28kts
12-Nov-19 10:07 33.947045 -118.408293 139 124ft 2kts

Navigation Log

Ident Type
Flight plan parsing failed, navigation log unavailable